Kenneth S. Settoon — WDD7467 — position and weather

sailwx.info

Track history (hours):
 
Tides and Currents Weather Stations Pressure Air Temp Water Temp Dewpoint Dewpoint Depression Visibility Wind Speed Wind Dir Waves Ship Positions

Kenneth S. Settoon

Owner: Settoon Towing, L.L.C., Pierre Part, LA. More information available from US FCC via Universal Licensing System and Coast Guard Vessel Documentation Center.

Last reported at 2018-Jul-18 18:10 UTC. Time now 2018-Jul-19 23:08 UTC.
Position N 29°31' W 090°42'.

Length 14 m; draft 3 m.

Type: Ship (hazmat cat B). MMSI: 367186840.

Date/timePositionNaut miles runAvg speedWind from/ knotsBaromVisibWave heightAir tempDewpointWater temp
2018-Jul-18 18:10N 29°31' W 090°42'1 7.0
2018-Jul-18 17:59N 29°33' W 090°42'2 5.0
2018-Jul-18 17:30N 29°35' W 090°43'1 2.6
2018-Jul-18 17:00N 29°34' W 090°44'  
2018-Jul-16 01:29N 29°33' W 090°45'3 5.3
2018-Jul-16 01:00N 29°34' W 090°43'3 5.0
2018-Jul-16 00:28N 29°37' W 090°42'0 0.6
2018-Jul-15 23:52N 29°37' W 090°42'1 0.0
2018-Jul-14 07:46N 29°36' W 090°41'1 4.4
2018-Jul-14 07:30N 29°36' W 090°43'3 5.3
2018-Jul-14 07:00N 29°34' W 090°44'  
2018-Jul-11 20:20N 29°32' W 090°49'2 6.1
2018-Jul-11 20:00N 29°32' W 090°46'3 5.5
2018-Jul-11 19:30N 29°34' W 090°44'1 2.4
2018-Jul-11 19:00N 29°35' W 090°43'0 0.2
2018-Jul-11 18:30N 29°35' W 090°43'0 0.0
2018-Jul-11 18:00N 29°35' W 090°43'0 0.0
2018-Jul-11 17:28N 29°35' W 090°43'0 0.0
2018-Jul-11 17:00N 29°35' W 090°43'2 4.0
2018-Jul-11 16:30N 29°37' W 090°42'3 4.8
2018-Jul-11 15:59N 29°36' W 090°40'0 0.2
2018-Jul-11 15:30N 29°36' W 090°40'0 0.0
2018-Jul-11 14:59N 29°36' W 090°40'0 0.0
2018-Jul-11 14:29N 29°36' W 090°40'0 0.0
2018-Jul-11 13:49N 29°36' W 090°40'0 0.0
2018-Jul-11 13:30N 29°36' W 090°40'0 0.0
2018-Jul-11 12:59N 29°36' W 090°40'0 0.0
2018-Jul-11 12:30N 29°36' W 090°40'0 0.0
2018-Jul-11 12:00N 29°36' W 090°40'0 0.0
2018-Jul-11 11:30N 29°36' W 090°40'0 0.0
2018-Jul-11 11:00N 29°36' W 090°40'0 0.0
2018-Jul-11 10:30N 29°36' W 090°40'0 0.0
2018-Jul-11 10:00N 29°36' W 090°40'0 0.0
2018-Jul-11 09:30N 29°36' W 090°40'0 0.0
2018-Jul-11 08:59N 29°36' W 090°40'0 0.0
2018-Jul-11 08:29N 29°36' W 090°40'0 0.0
2018-Jul-11 08:00N 29°36' W 090°40'0 0.0
2018-Jul-11 07:30N 29°36' W 090°40'0 0.0
2018-Jul-11 07:00N 29°36' W 090°40'0 0.0
2018-Jul-11 06:30N 29°36' W 090°40'0 0.0
2018-Jul-11 06:00N 29°36' W 090°40'0 0.0
2018-Jul-11 05:30N 29°36' W 090°40'0 0.0
2018-Jul-11 04:57N 29°36' W 090°40'0 0.0
2018-Jul-11 04:29N 29°36' W 090°40'0 0.0
2018-Jul-11 04:00N 29°36' W 090°40'0 0.0
2018-Jul-11 03:30N 29°36' W 090°40'0 0.0
2018-Jul-11 02:58N 29°36' W 090°40'2 4.7
2018-Jul-11 02:30N 29°37' W 090°42'3 5.8
2018-Jul-11 02:00N 29°34' W 090°43'3 5.6
2018-Jul-11 01:30N 29°31' W 090°42'3 0.2
2018-Jul-10 04:03N 29°28' W 090°43'0 8.0
2018-Jul-10 04:01N 29°28' W 090°43'4 7.7
2018-Jul-10 03:30N 29°32' W 090°42'3 5.9
2018-Jul-10 03:01N 29°35' W 090°43'0 0.0
2018-Jul-10 02:31N 29°35' W 090°43'1 1.3
2018-Jul-10 02:01N 29°35' W 090°43'2 3.1
2018-Jul-10 01:31N 29°37' W 090°42'0 0.0
2018-Jul-10 01:01N 29°37' W 090°42'2 3.5
2018-Jul-10 00:31N 29°36' W 090°40'1 1.1
2018-Jul-10 00:00N 29°36' W 090°40'0 0.0
2018-Jul-09 23:31N 29°36' W 090°40'0 0.0
2018-Jul-09 22:59N 29°36' W 090°40'2 4.5
2018-Jul-09 22:31N 29°35' W 090°38'3 5.3
2018-Jul-09 22:00N 29°34' W 090°34'4 0.3
2018-Jul-09 08:30N 29°34' W 090°30'4 7.3
2018-Jul-09 07:55N 29°34' W 090°34'3 7.0
2018-Jul-09 07:30N 29°35' W 090°38'2 3.7
2018-Jul-09 06:58N 29°36' W 090°40'0 0.0
2018-Jul-09 06:30N 29°36' W 090°40'0 0.0
2018-Jul-09 06:01N 29°36' W 090°40'0 0.0
2018-Jul-09 05:30N 29°36' W 090°40'0 0.0
2018-Jul-09 05:00N 29°36' W 090°40'0 0.0
2018-Jul-09 04:30N 29°36' W 090°40'0 0.0
2018-Jul-09 04:00N 29°36' W 090°40'0 0.0
2018-Jul-09 03:26N 29°36' W 090°40'0 0.0
2018-Jul-09 03:00N 29°36' W 090°40'0 0.0
2018-Jul-09 02:30N 29°36' W 090°40'0 0.0
2018-Jul-09 01:59N 29°36' W 090°40'0 0.0
2018-Jul-09 01:31N 29°36' W 090°40'0 0.0
2018-Jul-09 01:00N 29°36' W 090°40'0 0.0
2018-Jul-09 00:30N 29°36' W 090°40'0 0.0
2018-Jul-09 00:00N 29°36' W 090°40'0 0.0
2018-Jul-08 23:30N 29°36' W 090°40'0 0.0
2018-Jul-08 23:01N 29°36' W 090°40'0 0.0
2018-Jul-08 22:24N 29°36' W 090°40'0 0.2
2018-Jul-08 22:01N 29°36' W 090°40'3 5.3
2018-Jul-08 21:30N 29°36' W 090°43'3 6.0
2018-Jul-08 21:01N 29°33' W 090°42'3 6.1
2018-Jul-08 20:29N 29°30' W 090°43'  
Track history (hours):
 
Tides and Currents Weather Stations Pressure Air Temp Water Temp Dewpoint Dewpoint Depression Visibility Wind Speed Wind Dir Waves Ship Positions

Kenneth S. Settoon

Owner: Settoon Towing, L.L.C., Pierre Part, LA. More information available from US FCC via Universal Licensing System and Coast Guard Vessel Documentation Center.

Last reported at 2018-Jul-18 18:10 UTC. Time now 2018-Jul-19 23:08 UTC.
Position N 29°31' W 090°42'.

Length 14 m; draft 3 m.

Type: Ship (hazmat cat B). MMSI: 367186840.

Date/timePositionNaut miles runAvg speedWind from/ knotsBaromVisibWave heightAir tempDewpointWater temp
2018-Jul-18 18:10N 29°31' W 090°42'1 7.0
2018-Jul-18 17:59N 29°33' W 090°42'2 5.0
2018-Jul-18 17:30N 29°35' W 090°43'1 2.6
2018-Jul-18 17:00N 29°34' W 090°44'  
2018-Jul-16 01:29N 29°33' W 090°45'3 5.3
2018-Jul-16 01:00N 29°34' W 090°43'3 5.0
2018-Jul-16 00:28N 29°37' W 090°42'0 0.6
2018-Jul-15 23:52N 29°37' W 090°42'1 0.0
2018-Jul-14 07:46N 29°36' W 090°41'1 4.4
2018-Jul-14 07:30N 29°36' W 090°43'3 5.3
2018-Jul-14 07:00N 29°34' W 090°44'  
2018-Jul-11 20:20N 29°32' W 090°49'2 6.1
2018-Jul-11 20:00N 29°32' W 090°46'3 5.5
2018-Jul-11 19:30N 29°34' W 090°44'1 2.4
2018-Jul-11 19:00N 29°35' W 090°43'0 0.2
2018-Jul-11 18:30N 29°35' W 090°43'0 0.0
2018-Jul-11 18:00N 29°35' W 090°43'0 0.0
2018-Jul-11 17:28N 29°35' W 090°43'0 0.0
2018-Jul-11 17:00N 29°35' W 090°43'2 4.0
2018-Jul-11 16:30N 29°37' W 090°42'3 4.8
2018-Jul-11 15:59N 29°36' W 090°40'0 0.2
2018-Jul-11 15:30N 29°36' W 090°40'0 0.0
2018-Jul-11 14:59N 29°36' W 090°40'0 0.0
2018-Jul-11 14:29N 29°36' W 090°40'0 0.0
2018-Jul-11 13:49N 29°36' W 090°40'0 0.0
2018-Jul-11 13:30N 29°36' W 090°40'0 0.0
2018-Jul-11 12:59N 29°36' W 090°40'0 0.0
2018-Jul-11 12:30N 29°36' W 090°40'0 0.0
2018-Jul-11 12:00N 29°36' W 090°40'0 0.0
2018-Jul-11 11:30N 29°36' W 090°40'0 0.0
2018-Jul-11 11:00N 29°36' W 090°40'0 0.0
2018-Jul-11 10:30N 29°36' W 090°40'0 0.0
2018-Jul-11 10:00N 29°36' W 090°40'0 0.0
2018-Jul-11 09:30N 29°36' W 090°40'0 0.0
2018-Jul-11 08:59N 29°36' W 090°40'0 0.0
2018-Jul-11 08:29N 29°36' W 090°40'0 0.0
2018-Jul-11 08:00N 29°36' W 090°40'0 0.0
2018-Jul-11 07:30N 29°36' W 090°40'0 0.0
2018-Jul-11 07:00N 29°36' W 090°40'0 0.0
2018-Jul-11 06:30N 29°36' W 090°40'0 0.0
2018-Jul-11 06:00N 29°36' W 090°40'0 0.0
2018-Jul-11 05:30N 29°36' W 090°40'0 0.0
2018-Jul-11 04:57N 29°36' W 090°40'0 0.0
2018-Jul-11 04:29N 29°36' W 090°40'0 0.0
2018-Jul-11 04:00N 29°36' W 090°40'0 0.0
2018-Jul-11 03:30N 29°36' W 090°40'0 0.0
2018-Jul-11 02:58N 29°36' W 090°40'2 4.7
2018-Jul-11 02:30N 29°37' W 090°42'3 5.8
2018-Jul-11 02:00N 29°34' W 090°43'3 5.6
2018-Jul-11 01:30N 29°31' W 090°42'3 0.2
2018-Jul-10 04:03N 29°28' W 090°43'0 8.0
2018-Jul-10 04:01N 29°28' W 090°43'4 7.7
2018-Jul-10 03:30N 29°32' W 090°42'3 5.9
2018-Jul-10 03:01N 29°35' W 090°43'0 0.0
2018-Jul-10 02:31N 29°35' W 090°43'1 1.3
2018-Jul-10 02:01N 29°35' W 090°43'2 3.1
2018-Jul-10 01:31N 29°37' W 090°42'0 0.0
2018-Jul-10 01:01N 29°37' W 090°42'2 3.5
2018-Jul-10 00:31N 29°36' W 090°40'1 1.1
2018-Jul-10 00:00N 29°36' W 090°40'0 0.0
2018-Jul-09 23:31N 29°36' W 090°40'0 0.0
2018-Jul-09 22:59N 29°36' W 090°40'2 4.5
2018-Jul-09 22:31N 29°35' W 090°38'3 5.3
2018-Jul-09 22:00N 29°34' W 090°34'4 0.3
2018-Jul-09 08:30N 29°34' W 090°30'4 7.3
2018-Jul-09 07:55N 29°34' W 090°34'3 7.0
2018-Jul-09 07:30N 29°35' W 090°38'2 3.7
2018-Jul-09 06:58N 29°36' W 090°40'0 0.0
2018-Jul-09 06:30N 29°36' W 090°40'0 0.0
2018-Jul-09 06:01N 29°36' W 090°40'0 0.0
2018-Jul-09 05:30N 29°36' W 090°40'0 0.0
2018-Jul-09 05:00N 29°36' W 090°40'0 0.0
2018-Jul-09 04:30N 29°36' W 090°40'0 0.0
2018-Jul-09 04:00N 29°36' W 090°40'0 0.0
2018-Jul-09 03:26N 29°36' W 090°40'0 0.0
2018-Jul-09 03:00N 29°36' W 090°40'0 0.0
2018-Jul-09 02:30N 29°36' W 090°40'0 0.0
2018-Jul-09 01:59N 29°36' W 090°40'0 0.0
2018-Jul-09 01:31N 29°36' W 090°40'0 0.0
2018-Jul-09 01:00N 29°36' W 090°40'0 0.0
2018-Jul-09 00:30N 29°36' W 090°40'0 0.0
2018-Jul-09 00:00N 29°36' W 090°40'0 0.0
2018-Jul-08 23:30N 29°36' W 090°40'0 0.0
2018-Jul-08 23:01N 29°36' W 090°40'0 0.0
2018-Jul-08 22:24N 29°36' W 090°40'0 0.2
2018-Jul-08 22:01N 29°36' W 090°40'3 5.3
2018-Jul-08 21:30N 29°36' W 090°43'3 6.0
2018-Jul-08 21:01N 29°33' W 090°42'3 6.1
2018-Jul-08 20:29N 29°30' W 090°43'  

Dump ship's entire track history